Time;durP1;ratioP1;P1;durP2;ratioP2;P2;SDS_P1;SDS_P2;PMS_P1;PMS_P2;Temp;Humidity;BMP_temperature;BMP_pressure;BME280_temperature;BME280_humidity;BME280_pressure;Samples;Min_cycle;Max_cycle;Signal;HPM_P1;HPM_P2
2022/06/19 00:01:49;;;;;;;2.45;1.52;;;;;;;;;;4957252;28;20023;-85
2022/06/19 00:04:15;;;;;;;2.05;1.65;;;;;;;;;;4956676;28;20051;-85
2022/06/19 00:06:41;;;;;;;2.35;1.80;;;;;;;;;;4956657;28;20026;-85
2022/06/19 00:09:06;;;;;;;2.13;1.88;;;;;;;;;;4956744;28;20027;-85
2022/06/19 00:11:33;;;;;;;2.47;1.83;;;;;;;;;;4956678;28;20462;-85
2022/06/19 00:13:59;;;;;;;1.50;1.40;;;;;;;;;;4956749;28;20346;-84
2022/06/19 00:16:24;;;;;;;3.95;2.00;;;;;;;;;;4956907;28;20055;-85
2022/06/19 00:18:49;;;;;;;2.92;1.92;;;;;;;;;;4956593;28;20015;-85
2022/06/19 00:21:16;;;;;;;2.97;2.22;;;;;;;;;;4956827;28;20027;-85
2022/06/19 00:23:42;;;;;;;1.98;1.65;;;;;;;;;;4973974;28;20019;-85
2022/06/19 00:26:07;;;;;;;2.10;1.83;;;;;;;;;;4956401;28;20471;-85
2022/06/19 00:28:33;;;;;;;7.82;2.15;;;;;;;;;;4956530;28;20118;-85
2022/06/19 00:30:58;;;;;;;2.55;2.03;;;;;;;;;;4956510;28;20053;-85
2022/06/19 00:33:23;;;;;;;2.63;1.80;;;;;;;;;;4957124;28;20081;-84
2022/06/19 00:35:48;;;;;;;1.70;1.40;;;;;;;;;;4956522;28;20259;-84
2022/06/19 00:38:14;;;;;;;3.40;2.22;;;;;;;;;;4956511;28;20364;-85
2022/06/19 00:40:39;;;;;;;2.37;1.73;;;;;;;;;;4956498;28;20397;-86
2022/06/19 00:43:05;;;;;;;3.22;2.13;;;;;;;;;;4957136;28;20270;-86
2022/06/19 00:45:32;;;;;;;1.75;1.58;;;;;;;;;;4956946;28;20231;-86
2022/06/19 00:47:59;;;;;;;2.00;1.50;;;;;;;;;;4956570;28;20034;-86
2022/06/19 00:50:29;;;;;;;1.70;1.50;;;;;;;;;;4956458;28;20026;-86
2022/06/19 00:52:55;;;;;;;1.83;1.63;;;;;;;;;;4956670;28;20446;-86
2022/06/19 00:55:20;;;;;;;2.38;1.85;;;;;;;;;;4956848;28;20027;-85
2022/06/19 00:57:55;;;;;;;3.33;1.60;;;;;;;;;;4956774;28;20026;-86
2022/06/19 01:00:26;;;;;;;2.13;1.77;;;;;;;;;;4957107;28;20255;-86
2022/06/19 01:03:14;;;;;;;3.65;1.98;;;;;;;;;;4959422;28;20130;-86
2022/06/19 01:05:40;;;;;;;2.88;1.77;;;;;;;;;;4959809;28;20038;-87
2022/06/19 01:08:06;;;;;;;2.08;1.65;;;;;;;;;;4959860;28;20094;-87
2022/06/19 01:10:32;;;;;;;3.03;2.10;;;;;;;;;;4960071;28;20054;-85
2022/06/19 01:12:57;;;;;;;2.00;1.65;;;;;;;;;;4959706;28;20026;-85
2022/06/19 01:15:24;;;;;;;2.10;1.70;;;;;;;;;;4959518;28;20019;-85
2022/06/19 01:17:51;;;;;;;4.00;2.00;;;;;;;;;;4959641;28;20031;-85
2022/06/19 01:20:17;;;;;;;4.90;2.13;;;;;;;;;;4959481;28;20034;-85
2022/06/19 01:22:51;;;;;;;2.83;2.15;;;;;;;;;;4959427;28;20015;-85
2022/06/19 01:25:18;;;;;;;1.70;1.55;;;;;;;;;;4959881;28;20018;-85
2022/06/19 01:30:29;;;;;;;4.30;1.95;;;;;;;;;;4977299;28;20123;-86
2022/06/19 01:32:56;;;;;;;1.98;1.50;;;;;;;;;;4959489;28;20046;-85
2022/06/19 01:35:22;;;;;;;5.47;2.00;;;;;;;;;;4976482;28;20011;-85
2022/06/19 01:37:48;;;;;;;3.17;2.00;;;;;;;;;;4959280;28;20059;-86
2022/06/19 01:40:16;;;;;;;2.42;2.17;;;;;;;;;;4959682;28;20038;-86
2022/06/19 01:42:42;;;;;;;2.60;2.30;;;;;;;;;;4959450;28;20031;-89
2022/06/19 01:45:08;;;;;;;2.03;1.48;;;;;;;;;;4959332;28;20493;-87
2022/06/19 01:47:34;;;;;;;2.13;1.90;;;;;;;;;;4959166;28;20134;-86
2022/06/19 01:50:00;;;;;;;2.80;2.05;;;;;;;;;;4959269;28;20483;-87
2022/06/19 01:52:27;;;;;;;3.70;2.20;;;;;;;;;;4959457;28;20138;-87
2022/06/19 01:54:56;;;;;;;2.17;1.88;;;;;;;;;;4959076;28;20022;-86
2022/06/19 01:57:22;;;;;;;1.92;1.75;;;;;;;;;;4959043;28;20038;-86
2022/06/19 01:59:48;;;;;;;10.55;2.03;;;;;;;;;;4959020;28;20022;-86
2022/06/19 02:02:14;;;;;;;4.85;2.17;;;;;;;;;;4958867;28;20034;-86
2022/06/19 02:04:40;;;;;;;1.75;1.65;;;;;;;;;;4958661;28;20557;-86
2022/06/19 02:07:07;;;;;;;2.08;1.52;;;;;;;;;;4959111;28;20027;-86
2022/06/19 02:09:34;;;;;;;1.40;1.30;;;;;;;;;;4958821;28;20074;-86
2022/06/19 02:11:59;;;;;;;1.70;1.50;;;;;;;;;;4958476;28;20019;-85
2022/06/19 02:14:25;;;;;;;3.60;1.95;;;;;;;;;;4958447;28;20030;-85
2022/06/19 02:16:51;;;;;;;2.03;1.88;;;;;;;;;;4958517;28;20027;-85
2022/06/19 02:19:17;;;;;;;3.05;2.17;;;;;;;;;;4958654;28;20026;-86
2022/06/19 02:21:46;;;;;;;2.15;1.63;;;;;;;;;;4958704;28;20542;-86
2022/06/19 02:24:12;;;;;;;2.25;1.48;;;;;;;;;;4958947;28;20451;-87
2022/06/19 02:26:38;;;;;;;2.58;2.03;;;;;;;;;;4975728;28;20033;-87
2022/06/19 02:29:09;;;;;;;2.35;2.15;;;;;;;;;;4958524;28;20026;-87
2022/06/19 02:31:34;;;;;;;2.22;1.67;;;;;;;;;;4975966;28;20447;-87
2022/06/19 02:34:02;;;;;;;2.15;1.95;;;;;;;;;;4958516;28;20066;-88
2022/06/19 02:36:39;;;;;;;1.63;1.50;;;;;;;;;;4958902;28;20042;-87
2022/06/19 02:39:14;;;;;;;2.10;1.63;;;;;;;;;;4958233;28;20022;-86
2022/06/19 02:41:44;;;;;;;3.10;1.77;;;;;;;;;;4958609;28;20382;-86
2022/06/19 02:44:09;;;;;;;3.67;1.73;;;;;;;;;;4958309;28;20111;-86
2022/06/19 02:46:35;;;;;;;4.35;2.30;;;;;;;;;;4957883;28;20491;-86
2022/06/19 02:49:01;;;;;;;1.90;1.47;;;;;;;;;;4958277;28;20031;-87
2022/06/19 02:51:26;;;;;;;4.15;2.25;;;;;;;;;;4957948;28;20265;-86
2022/06/19 02:53:52;;;;;;;2.97;1.73;;;;;;;;;;4957952;28;20015;-86
2022/06/19 02:56:17;;;;;;;3.20;2.13;;;;;;;;;;4957906;28;20325;-86
2022/06/19 02:58:42;;;;;;;3.10;2.10;;;;;;;;;;4957876;28;20270;-86
2022/06/19 03:01:07;;;;;;;2.77;2.03;;;;;;;;;;4957724;28;20297;-86
2022/06/19 03:03:36;;;;;;;3.37;1.90;;;;;;;;;;4957685;28;20373;-86
2022/06/19 03:06:05;;;;;;;2.17;1.50;;;;;;;;;;4958203;28;20266;-85
2022/06/19 03:08:30;;;;;;;1.88;1.70;;;;;;;;;;4958026;28;20038;-85
2022/06/19 03:10:56;;;;;;;3.33;2.28;;;;;;;;;;4957465;28;20470;-85
2022/06/19 03:13:21;;;;;;;2.25;1.90;;;;;;;;;;4957395;28;20380;-85
2022/06/19 03:15:47;;;;;;;2.72;2.40;;;;;;;;;;4957389;28;20022;-85
2022/06/19 03:18:12;;;;;;;3.17;1.92;;;;;;;;;;4957302;28;20390;-85
2022/06/19 03:20:38;;;;;;;2.83;2.03;;;;;;;;;;4957618;28;20061;-85
2022/06/19 03:23:03;;;;;;;2.85;2.00;;;;;;;;;;4957324;28;20258;-85
2022/06/19 03:25:29;;;;;;;1.95;1.75;;;;;;;;;;4956360;28;20118;-85
2022/06/19 03:27:54;;;;;;;4.78;1.67;;;;;;;;;;4957135;28;20015;-85
2022/06/19 03:30:20;;;;;;;2.57;2.23;;;;;;;;;;4957160;28;20450;-85
2022/06/19 03:32:45;;;;;;;2.50;1.55;;;;;;;;;;4957139;28;20269;-85
2022/06/19 03:35:11;;;;;;;1.52;1.40;;;;;;;;;;4957062;28;20019;-86
2022/06/19 03:37:36;;;;;;;1.70;1.50;;;;;;;;;;4957723;28;20026;-85
2022/06/19 03:40:01;;;;;;;8.15;1.63;;;;;;;;;;4957346;28;20023;-86
2022/06/19 03:42:27;;;;;;;8.75;1.77;;;;;;;;;;4957404;28;20033;-86
2022/06/19 03:44:52;;;;;;;1.88;1.67;;;;;;;;;;4957131;28;20050;-86
2022/06/19 03:47:22;;;;;;;3.07;1.50;;;;;;;;;;4957190;28;20089;-86
2022/06/19 03:49:47;;;;;;;2.00;1.50;;;;;;;;;;4957554;28;20313;-86
2022/06/19 03:52:13;;;;;;;1.40;1.30;;;;;;;;;;4957020;28;20019;-86
2022/06/19 03:54:38;;;;;;;1.95;1.42;;;;;;;;;;4957342;28;20050;-86
2022/06/19 03:57:03;;;;;;;1.40;1.30;;;;;;;;;;4957214;28;20093;-86
2022/06/19 03:59:29;;;;;;;7.38;1.38;;;;;;;;;;4956802;28;20494;-86
2022/06/19 04:01:54;;;;;;;1.63;1.17;;;;;;;;;;4957064;28;20015;-86
2022/06/19 04:04:19;;;;;;;0.80;0.80;;;;;;;;;;4962406;28;20062;-86
2022/06/19 04:06:45;;;;;;;1.10;1.00;;;;;;;;;;4972839;28;20026;-86
2022/06/19 04:09:12;;;;;;;1.60;1.48;;;;;;;;;;4973106;28;20258;-84
2022/06/19 04:11:38;;;;;;;1.10;1.00;;;;;;;;;;4973460;28;20406;-84
2022/06/19 04:14:04;;;;;;;1.02;0.93;;;;;;;;;;4972222;28;20030;-83
2022/06/19 04:16:30;;;;;;;0.82;0.82;;;;;;;;;;4977750;28;20029;-82
2022/06/19 04:18:56;;;;;;;1.75;1.10;;;;;;;;;;4980294;28;20118;-83
2022/06/19 04:21:24;;;;;;;1.42;1.23;;;;;;;;;;4972032;28;20063;-84
2022/06/19 04:23:51;;;;;;;1.73;1.60;;;;;;;;;;4973548;28;20101;-83
2022/06/19 04:26:16;;;;;;;1.02;0.85;;;;;;;;;;4972471;28;20023;-84
2022/06/19 04:28:42;;;;;;;1.27;1.00;;;;;;;;;;4991964;28;20022;-83
2022/06/19 04:31:08;;;;;;;1.00;1.00;;;;;;;;;;4980027;28;20411;-84
2022/06/19 04:33:37;;;;;;;2.77;1.17;;;;;;;;;;4972171;28;20074;-83
2022/06/19 04:36:02;;;;;;;2.50;1.20;;;;;;;;;;4973604;28;20274;-83
2022/06/19 04:38:28;;;;;;;1.10;1.00;;;;;;;;;;4982169;28;20018;-84
2022/06/19 04:40:54;;;;;;;0.88;0.88;;;;;;;;;;4985775;28;20034;-83
2022/06/19 04:43:19;;;;;;;1.50;1.10;;;;;;;;;;4975508;28;20023;-83
2022/06/19 04:45:45;;;;;;;3.40;1.17;;;;;;;;;;4983622;28;20018;-83
2022/06/19 04:48:10;;;;;;;3.15;1.40;;;;;;;;;;4975559;28;20278;-83
2022/06/19 04:50:36;;;;;;;0.90;0.90;;;;;;;;;;4975143;28;20023;-83
2022/06/19 04:53:01;;;;;;;0.93;0.93;;;;;;;;;;4981343;28;20259;-83
2022/06/19 04:55:27;;;;;;;2.13;0.77;;;;;;;;;;4981379;28;20027;-84
2022/06/19 04:57:52;;;;;;;1.25;0.90;;;;;;;;;;4975351;28;20478;-83
2022/06/19 05:00:19;;;;;;;0.80;0.80;;;;;;;;;;4975539;28;20026;-84
2022/06/19 05:02:47;;;;;;;1.50;0.93;;;;;;;;;;4985048;28;20276;-83
2022/06/19 05:05:15;;;;;;;4.20;0.80;;;;;;;;;;4984857;28;20054;-83
2022/06/19 05:07:40;;;;;;;1.13;1.02;;;;;;;;;;4994365;28;20109;-84
2022/06/19 05:10:06;;;;;;;2.50;0.93;;;;;;;;;;4978617;28;20065;-84
2022/06/19 05:12:31;;;;;;;2.47;1.10;;;;;;;;;;4975049;28;20266;-83
2022/06/19 05:14:57;;;;;;;1.43;1.10;;;;;;;;;;4975081;28;20492;-83
2022/06/19 05:17:22;;;;;;;1.10;1.00;;;;;;;;;;4975162;28;20039;-83
2022/06/19 05:19:47;;;;;;;2.07;0.90;;;;;;;;;;4974785;28;20019;-83
2022/06/19 05:22:12;;;;;;;1.90;1.10;;;;;;;;;;4975070;28;20019;-83
2022/06/19 05:24:38;;;;;;;3.60;0.90;;;;;;;;;;4977368;28;20113;-84
2022/06/19 05:27:09;;;;;;;0.80;0.80;;;;;;;;;;4974651;28;20033;-85
2022/06/19 05:29:35;;;;;;;5.57;1.63;;;;;;;;;;4957493;28;20090;-84
2022/06/19 05:32:00;;;;;;;1.98;0.82;;;;;;;;;;4974572;28;20557;-82
2022/06/19 05:34:26;;;;;;;0.87;0.87;;;;;;;;;;4980441;28;20025;-83
2022/06/19 05:36:51;;;;;;;1.47;1.03;;;;;;;;;;4978425;28;20430;-83
2022/06/19 05:39:16;;;;;;;3.43;1.23;;;;;;;;;;4973993;28;20051;-83
2022/06/19 05:41:42;;;;;;;4.43;1.00;;;;;;;;;;4974168;28;20434;-83
2022/06/19 05:44:07;;;;;;;1.13;0.85;;;;;;;;;;4974303;28;20761;-83
2022/06/19 05:46:33;;;;;;;1.13;0.80;;;;;;;;;;4979723;28;20030;-84
2022/06/19 05:48:59;;;;;;;1.83;1.05;;;;;;;;;;4993288;28;20030;-84
2022/06/19 05:51:45;;;;;;;0.60;0.60;;;;;;;;;;4993769;28;20097;-83
2022/06/19 05:54:10;;;;;;;1.00;0.90;;;;;;;;;;4993407;28;20023;-83
2022/06/19 05:56:35;;;;;;;0.97;0.73;;;;;;;;;;4993810;28;20033;-84
2022/06/19 05:59:01;;;;;;;0.73;0.65;;;;;;;;;;4994920;28;20455;-85
2022/06/19 06:01:28;;;;;;;1.45;0.90;;;;;;;;;;4993495;28;20100;-85
2022/06/19 06:03:54;;;;;;;0.90;0.90;;;;;;;;;;4993674;28;20046;-87
2022/06/19 06:06:21;;;;;;;3.03;0.90;;;;;;;;;;4993420;28;20022;-88
2022/06/19 06:08:46;;;;;;;2.40;0.98;;;;;;;;;;4993958;28;20038;-87
2022/06/19 06:11:12;;;;;;;0.63;0.63;;;;;;;;;;4993818;28;20030;-89
2022/06/19 06:13:38;;;;;;;1.25;1.00;;;;;;;;;;4993914;28;20145;-87
2022/06/19 06:16:03;;;;;;;1.67;0.77;;;;;;;;;;4993835;28;20022;-90
2022/06/19 06:18:29;;;;;;;1.00;0.90;;;;;;;;;;4993862;28;20022;-91
2022/06/19 06:21:14;;;;;;;0.80;0.80;;;;;;;;;;4993159;28;20109;-87
2022/06/19 06:23:39;;;;;;;0.80;0.80;;;;;;;;;;4993873;28;20010;-89
2022/06/19 06:26:09;;;;;;;7.00;1.03;;;;;;;;;;4993591;28;20044;-88
2022/06/19 06:28:36;;;;;;;10.90;1.65;;;;;;;;;;4993943;28;20489;-89
2022/06/19 06:31:02;;;;;;;0.60;0.60;;;;;;;;;;4994163;28;20038;-87
2022/06/19 06:33:28;;;;;;;1.67;0.80;;;;;;;;;;4994333;28;20018;-87
2022/06/19 06:35:53;;;;;;;3.63;0.70;;;;;;;;;;4993646;28;20413;-87
2022/06/19 06:38:19;;;;;;;0.70;0.70;;;;;;;;;;4993950;28;20026;-87
2022/06/19 06:40:44;;;;;;;2.70;0.90;;;;;;;;;;4993848;28;20034;-88
2022/06/19 06:43:10;;;;;;;0.67;0.67;;;;;;;;;;4993752;28;20110;-88
2022/06/19 06:45:35;;;;;;;1.57;0.77;;;;;;;;;;4994346;28;20096;-87
2022/06/19 06:48:00;;;;;;;0.70;0.70;;;;;;;;;;4994688;28;20109;-88
2022/06/19 06:50:26;;;;;;;2.90;0.87;;;;;;;;;;4994031;28;20376;-88
2022/06/19 06:52:51;;;;;;;3.37;1.33;;;;;;;;;;4994203;28;20030;-88
2022/06/19 06:55:17;;;;;;;1.43;1.00;;;;;;;;;;4993644;28;20046;-88
2022/06/19 06:57:42;;;;;;;0.80;0.80;;;;;;;;;;4993759;28;20117;-91
2022/06/19 07:00:09;;;;;;;2.57;0.80;;;;;;;;;;4993739;28;20080;-91
2022/06/19 07:02:34;;;;;;;1.15;0.77;;;;;;;;;;4993115;28;20037;-90
2022/06/19 07:05:00;;;;;;;2.28;0.80;;;;;;;;;;4993566;28;20046;-91
2022/06/19 07:07:25;;;;;;;1.30;0.70;;;;;;;;;;4993395;28;20022;-91
2022/06/19 07:09:50;;;;;;;0.80;0.80;;;;;;;;;;4993227;28;20387;-91
2022/06/19 07:12:15;;;;;;;0.60;0.60;;;;;;;;;;4993608;28;20271;-91
2022/06/19 07:14:41;;;;;;;0.68;0.68;;;;;;;;;;4994015;28;20608;-91
2022/06/19 07:17:06;;;;;;;0.87;0.87;;;;;;;;;;4993277;28;20137;-90
2022/06/19 07:19:32;;;;;;;0.53;0.50;;;;;;;;;;4993288;28;20448;-91
2022/06/19 07:21:57;;;;;;;3.37;0.87;;;;;;;;;;4992900;28;20022;-91
2022/06/19 07:24:23;;;;;;;2.10;0.80;;;;;;;;;;4993018;28;20398;-92
2022/06/19 07:26:48;;;;;;;0.65;0.65;;;;;;;;;;4992662;28;20033;-91
2022/06/19 07:29:13;;;;;;;0.98;0.63;;;;;;;;;;4992999;28;20081;-91
2022/06/19 07:31:39;;;;;;;0.53;0.40;;;;;;;;;;4992906;28;20027;-92
2022/06/19 07:34:04;;;;;;;0.50;0.50;;;;;;;;;;4992912;28;20316;-93
2022/06/19 07:36:30;;;;;;;0.30;0.30;;;;;;;;;;4993080;28;20056;-92
2022/06/19 07:38:56;;;;;;;1.17;0.40;;;;;;;;;;4993501;28;20076;-90
2022/06/19 07:41:21;;;;;;;6.27;0.80;;;;;;;;;;4992998;28;20475;-90
2022/06/19 07:43:49;;;;;;;0.50;0.50;;;;;;;;;;4993472;28;20045;-89
2022/06/19 07:46:14;;;;;;;2.60;0.65;;;;;;;;;;4992977;28;20021;-90
2022/06/19 07:51:25;;;;;;;0.40;0.40;;;;;;;;;;4994417;28;20085;-93
2022/06/19 07:53:50;;;;;;;0.50;0.50;;;;;;;;;;4992909;28;20022;-92
2022/06/19 07:56:15;;;;;;;0.23;0.23;;;;;;;;;;4993207;28;20081;-88
2022/06/19 07:58:40;;;;;;;0.33;0.33;;;;;;;;;;4992587;28;20784;-91
2022/06/19 08:01:06;;;;;;;0.30;0.30;;;;;;;;;;4992664;28;20110;-89
2022/06/19 08:03:31;;;;;;;0.90;0.37;;;;;;;;;;4992449;28;20508;-90
2022/06/19 08:05:56;;;;;;;1.30;0.60;;;;;;;;;;4976568;28;20029;-89
2022/06/19 08:08:24;;;;;;;1.50;0.70;;;;;;;;;;4976602;28;20026;-88
2022/06/19 08:10:50;;;;;;;0.75;0.63;;;;;;;;;;4977599;28;20323;-89
2022/06/19 08:13:19;;;;;;;0.40;0.40;;;;;;;;;;4980467;28;20026;-88
2022/06/19 08:15:45;;;;;;;2.17;0.60;;;;;;;;;;4980466;28;20120;-88
2022/06/19 08:18:11;;;;;;;3.03;0.75;;;;;;;;;;4980485;28;20530;-90
2022/06/19 08:20:36;;;;;;;0.50;0.50;;;;;;;;;;4980696;28;20029;-90
2022/06/19 08:23:03;;;;;;;0.50;0.50;;;;;;;;;;4980306;28;20308;-89
2022/06/19 08:25:28;;;;;;;0.40;0.40;;;;;;;;;;4981093;28;20113;-88
2022/06/19 08:27:54;;;;;;;0.40;0.40;;;;;;;;;;4980216;28;20129;-88
2022/06/19 08:30:19;;;;;;;1.23;0.90;;;;;;;;;;4980085;28;20022;-89
2022/06/19 08:32:44;;;;;;;2.00;0.57;;;;;;;;;;4980154;28;20262;-89
2022/06/19 08:35:09;;;;;;;0.55;0.50;;;;;;;;;;4979852;28;20109;-88
2022/06/19 08:37:35;;;;;;;0.73;0.73;;;;;;;;;;4980168;28;20018;-88
2022/06/19 08:40:01;;;;;;;0.70;0.57;;;;;;;;;;4980436;28;20332;-89
2022/06/19 08:42:35;;;;;;;0.82;0.63;;;;;;;;;;4979484;28;20022;-88
2022/06/19 08:45:04;;;;;;;0.55;0.55;;;;;;;;;;4979661;28;20022;-87
2022/06/19 08:47:32;;;;;;;0.80;0.55;;;;;;;;;;4979689;28;20030;-90
2022/06/19 08:50:01;;;;;;;3.90;0.63;;;;;;;;;;4979697;28;20023;-90
2022/06/19 08:52:29;;;;;;;0.90;0.70;;;;;;;;;;4979845;28;20397;-89
2022/06/19 08:55:01;;;;;;;0.68;0.65;;;;;;;;;;4979532;28;20029;-90
2022/06/19 08:57:45;;;;;;;0.45;0.40;;;;;;;;;;4979466;28;20026;-90
2022/06/19 09:00:12;;;;;;;10.55;0.63;;;;;;;;;;4980036;28;20072;-90
2022/06/19 09:02:47;;;;;;;1.73;0.50;;;;;;;;;;4979501;28;20038;-90
2022/06/19 09:05:36;;;;;;;0.52;0.52;;;;;;;;;;4992153;28;20476;-89
2022/06/19 09:08:20;;;;;;;0.75;0.57;;;;;;;;;;4995839;28;20026;-88
2022/06/19 09:10:51;;;;;;;0.45;0.32;;;;;;;;;;4994961;28;20022;-88
2022/06/19 09:13:42;;;;;;;3.70;0.60;;;;;;;;;;4995410;28;20029;-88
2022/06/19 09:16:11;;;;;;;6.80;0.60;;;;;;;;;;4995370;28;20113;-91
2022/06/19 09:18:42;;;;;;;0.50;0.50;;;;;;;;;;4996131;28;20462;-92
2022/06/19 09:21:32;;;;;;;0.60;0.60;;;;;;;;;;4995299;28;20030;-87
2022/06/19 09:24:04;;;;;;;1.17;0.70;;;;;;;;;;4994139;28;20069;-86
2022/06/19 09:26:29;;;;;;;1.17;0.95;;;;;;;;;;4994793;28;20153;-86
2022/06/19 09:29:00;;;;;;;0.80;0.70;;;;;;;;;;4994968;28;20139;-88
2022/06/19 09:31:42;;;;;;;1.13;0.70;;;;;;;;;;4996435;28;20030;-86
2022/06/19 09:34:08;;;;;;;0.45;0.30;;;;;;;;;;4994675;28;20018;-86
2022/06/19 09:36:52;;;;;;;2.80;0.80;;;;;;;;;;4994746;28;20026;-86
2022/06/19 09:39:24;;;;;;;0.85;0.73;;;;;;;;;;4994820;28;20261;-87
2022/06/19 09:42:13;;;;;;;0.52;0.50;;;;;;;;;;4995014;28;20482;-87
2022/06/19 09:44:47;;;;;;;0.40;0.40;;;;;;;;;;4981732;28;20083;-90
2022/06/19 09:47:15;;;;;;;0.98;0.60;;;;;;;;;;4994841;28;20034;-89
2022/06/19 09:49:46;;;;;;;1.45;0.40;;;;;;;;;;4994714;28;20022;-85
2022/06/19 09:52:14;;;;;;;5.22;2.10;;;;;;;;;;4993415;28;20027;-86
2022/06/19 09:54:46;;;;;;;8.30;2.65;;;;;;;;;;4993454;28;20033;-86
2022/06/19 09:57:26;;;;;;;3.65;1.75;;;;;;;;;;4994283;28;20033;-85
2022/06/19 09:59:55;;;;;;;1.02;0.80;;;;;;;;;;4994413;28;20019;-87
2022/06/19 10:02:23;;;;;;;4.88;0.50;;;;;;;;;;4994273;28;20129;-86
2022/06/19 10:04:48;;;;;;;;;;;;;;;;;;4984782;28;20080;-86
2022/06/19 10:07:46;;;;;;;1.33;0.50;;;;;;;;;;4977972;28;19913;-87
2022/06/19 10:10:17;;;;;;;0.47;0.47;;;;;;;;;;4935805;28;20452;-89
2022/06/19 10:12:44;;;;;;;2.97;1.45;;;;;;;;;;4978114;28;20117;-87
2022/06/19 10:15:13;;;;;;;0.50;0.50;;;;;;;;;;4977857;28;20022;-87
2022/06/19 10:17:47;;;;;;;1.58;1.02;;;;;;;;;;4977587;28;20018;-86
2022/06/19 10:20:16;;;;;;;2.92;1.30;;;;;;;;;;4977571;28;20022;-86
2022/06/19 10:22:45;;;;;;;1.67;0.60;;;;;;;;;;4977668;28;20025;-86
2022/06/19 10:25:29;;;;;;;0.40;0.40;;;;;;;;;;4977523;28;20482;-86
2022/06/19 10:27:57;;;;;;;1.10;0.88;;;;;;;;;;4977423;28;20031;-87
2022/06/19 10:30:38;;;;;;;0.68;0.50;;;;;;;;;;4977494;28;20494;-85
2022/06/19 10:33:04;;;;;;;0.45;0.45;;;;;;;;;;4977359;28;20105;-88
2022/06/19 10:35:52;;;;;;;0.50;0.50;;;;;;;;;;4978031;28;20117;-87
2022/06/19 10:38:36;;;;;;;0.47;0.45;;;;;;;;;;4967493;28;20034;-89
2022/06/19 10:42:00;;;;;;;0.50;0.50;;;;;;;;;;4977459;28;20015;-85
2022/06/19 10:44:22;;;;;;;0.40;0.40;;;;;;;;;;4994184;28;20062;-87
2022/06/19 10:46:50;;;;;;;0.73;0.60;;;;;;;;;;4937757;28;20038;-88
2022/06/19 10:49:15;;;;;;;0.50;0.47;;;;;;;;;;4977722;28;20030;-86
2022/06/19 10:52:09;;;;;;;4.27;1.80;;;;;;;;;;4977376;28;20030;-85
2022/06/19 10:54:48;;;;;;;8.63;2.97;;;;;;;;;;4960744;28;20257;-85
2022/06/19 10:57:33;;;;;;;0.75;0.75;;;;;;;;;;4976865;28;20026;-86
2022/06/19 10:59:58;;;;;;;2.08;1.20;;;;;;;;;;4976977;28;20105;-85
2022/06/19 11:05:40;;;;;;;0.70;0.70;;;;;;;;;;4994661;28;20332;-87
2022/06/19 11:08:05;;;;;;;0.77;0.70;;;;;;;;;;4975992;28;20037;-85
2022/06/19 11:10:35;;;;;;;0.40;0.40;;;;;;;;;;4976770;28;20027;-86
2022/06/19 11:13:01;;;;;;;0.38;0.30;;;;;;;;;;4994109;28;20497;-86
2022/06/19 11:15:26;;;;;;;1.00;0.65;;;;;;;;;;4976737;28;20019;-86
2022/06/19 11:18:13;;;;;;;0.53;0.53;;;;;;;;;;4994161;28;20027;-86
2022/06/19 11:20:57;;;;;;;0.40;0.40;;;;;;;;;;4976954;28;20022;-86
2022/06/19 11:23:36;;;;;;;0.65;0.55;;;;;;;;;;4976586;28;20038;-86
2022/06/19 11:26:07;;;;;;;2.20;0.52;;;;;;;;;;4976757;28;20041;-87
2022/06/19 11:28:56;;;;;;;0.60;0.60;;;;;;;;;;4993498;28;20026;-86
2022/06/19 11:31:23;;;;;;;0.20;0.20;;;;;;;;;;4948122;28;20038;-86
2022/06/19 11:33:53;;;;;;;1.00;0.75;;;;;;;;;;4976071;28;20018;-85
2022/06/19 11:36:24;;;;;;;0.82;0.60;;;;;;;;;;4976383;28;20027;-85
2022/06/19 11:38:50;;;;;;;0.98;0.65;;;;;;;;;;4976373;28;20027;-85
2022/06/19 11:41:22;;;;;;;2.75;1.30;;;;;;;;;;4976433;28;20386;-86
2022/06/19 11:44:01;;;;;;;0.50;0.50;;;;;;;;;;4976113;28;20084;-85
2022/06/19 11:46:26;;;;;;;0.40;0.40;;;;;;;;;;4975600;28;20028;-87
2022/06/19 11:48:52;;;;;;;0.45;0.45;;;;;;;;;;4976421;28;20411;-87
2022/06/19 11:51:20;;;;;;;1.10;0.75;;;;;;;;;;4993409;28;20026;-86
2022/06/19 11:53:50;;;;;;;0.50;0.50;;;;;;;;;;4976500;28;20015;-86
2022/06/19 11:56:21;;;;;;;1.33;0.55;;;;;;;;;;4993510;28;20038;-86
2022/06/19 11:58:51;;;;;;;0.65;0.65;;;;;;;;;;4976635;28;20022;-87
2022/06/19 12:01:18;;;;;;;0.50;0.50;;;;;;;;;;4976487;28;20117;-86
2022/06/19 12:03:46;;;;;;;0.40;0.40;;;;;;;;;;4976543;28;20101;-88
2022/06/19 12:06:13;;;;;;;0.70;0.70;;;;;;;;;;4992139;28;20046;-85
2022/06/19 12:08:41;;;;;;;0.95;0.68;;;;;;;;;;4992067;28;20037;-85
2022/06/19 12:11:08;;;;;;;1.08;0.52;;;;;;;;;;4992449;28;20053;-86
2022/06/19 12:13:37;;;;;;;0.60;0.60;;;;;;;;;;4992082;28;20019;-86
2022/06/19 12:16:09;;;;;;;2.50;0.50;;;;;;;;;;4992309;28;20256;-86
2022/06/19 12:18:35;;;;;;;1.88;0.80;;;;;;;;;;4992531;28;20022;-86
2022/06/19 12:21:03;;;;;;;2.33;1.25;;;;;;;;;;4992063;28;20463;-86
2022/06/19 12:23:37;;;;;;;1.40;0.85;;;;;;;;;;4992225;28;20041;-86
2022/06/19 12:26:05;;;;;;;2.95;0.80;;;;;;;;;;4991763;28;20055;-86
2022/06/19 12:28:31;;;;;;;;;;;;;;;;;;4992751;28;20018;-85
2022/06/19 12:30:56;;;;;;;0.63;0.63;;;;;;;;;;4992537;28;19917;-87
2022/06/19 12:33:42;;;;;;;0.43;0.43;;;;;;;;;;4992442;28;20030;-85
2022/06/19 12:36:11;;;;;;;0.60;0.60;;;;;;;;;;4942868;28;20418;-86
2022/06/19 12:38:37;;;;;;;1.23;0.57;;;;;;;;;;4991811;28;20105;-86
2022/06/19 12:41:05;;;;;;;0.65;0.65;;;;;;;;;;4991922;28;20050;-86
2022/06/19 12:43:31;;;;;;;0.70;0.68;;;;;;;;;;4991939;28;20015;-85
2022/06/19 12:45:59;;;;;;;0.50;0.40;;;;;;;;;;4991850;28;20117;-84
2022/06/19 12:48:27;;;;;;;2.25;0.90;;;;;;;;;;4991458;28;20285;-84
2022/06/19 12:50:58;;;;;;;6.32;0.50;;;;;;;;;;4991590;28;20019;-84
2022/06/19 12:53:26;;;;;;;1.23;0.70;;;;;;;;;;4991671;28;20056;-87
2022/06/19 12:55:52;;;;;;;2.20;0.30;;;;;;;;;;4991816;28;20018;-85
2022/06/19 12:58:36;;;;;;;0.60;0.50;;;;;;;;;;4994923;28;20117;-84
2022/06/19 13:01:09;;;;;;;3.55;0.63;;;;;;;;;;4995166;28;20113;-84
2022/06/19 13:03:44;;;;;;;3.40;1.08;;;;;;;;;;4995255;28;20062;-85
2022/06/19 13:06:28;;;;;;;5.80;2.60;;;;;;;;;;4978964;28;20077;-86
2022/06/19 13:08:53;;;;;;;0.63;0.50;;;;;;;;;;4978794;28;20117;-85
2022/06/19 13:11:34;;;;;;;0.73;0.67;;;;;;;;;;4996651;28;20053;-86
2022/06/19 13:14:06;;;;;;;0.82;0.75;;;;;;;;;;4978796;28;20062;-86
2022/06/19 13:16:38;;;;;;;3.20;0.45;;;;;;;;;;4978810;28;20026;-85
2022/06/19 13:19:12;;;;;;;2.55;0.63;;;;;;;;;;4979027;28;20022;-86
2022/06/19 13:21:47;;;;;;;0.50;0.50;;;;;;;;;;4979429;28;20024;-85
2022/06/19 13:24:12;;;;;;;0.45;0.40;;;;;;;;;;4978761;28;20493;-88
2022/06/19 13:29:37;;;;;;;0.50;0.50;;;;;;;;;;4996408;28;20041;-86
2022/06/19 13:32:17;;;;;;;0.85;0.40;;;;;;;;;;4978590;28;20022;-90
2022/06/19 13:34:55;;;;;;;0.50;0.50;;;;;;;;;;4996332;28;20026;-90
2022/06/19 13:37:30;;;;;;;0.50;0.50;;;;;;;;;;4979060;28;20053;-89
2022/06/19 13:39:58;;;;;;;0.60;0.60;;;;;;;;;;4978797;28;20025;-88
2022/06/19 13:42:27;;;;;;;0.88;0.80;;;;;;;;;;4978780;28;20398;-87
2022/06/19 13:44:52;;;;;;;0.50;0.50;;;;;;;;;;4978665;28;20113;-89
2022/06/19 13:47:32;;;;;;;0.88;0.55;;;;;;;;;;4978311;28;20168;-89
2022/06/19 13:50:00;;;;;;;0.32;0.32;;;;;;;;;;4978719;28;20026;-88
2022/06/19 13:52:41;;;;;;;0.60;0.60;;;;;;;;;;4978618;28;20029;-88
2022/06/19 13:55:15;;;;;;;0.25;0.25;;;;;;;;;;4978713;28;20025;-90
2022/06/19 13:57:45;;;;;;;0.43;0.43;;;;;;;;;;4978956;28;20029;-90
2022/06/19 14:00:46;;;;;;;1.55;0.52;;;;;;;;;;4996026;28;20474;-90
2022/06/19 14:03:18;;;;;;;19.02;4.65;;;;;;;;;;4898219;29;20037;-90
2022/06/19 14:05:44;;;;;;;1.85;0.45;;;;;;;;;;4977803;28;20046;-90
2022/06/19 14:08:09;;;;;;;0.30;0.30;;;;;;;;;;4994066;28;20474;-91
2022/06/19 14:10:35;;;;;;;1.60;0.50;;;;;;;;;;4994615;28;20037;-90
2022/06/19 14:13:15;;;;;;;0.80;0.80;;;;;;;;;;4994843;28;20273;-90
2022/06/19 14:15:48;;;;;;;2.15;0.70;;;;;;;;;;4994927;28;20022;-89
2022/06/19 14:18:32;;;;;;;0.73;0.40;;;;;;;;;;4994429;28;20072;-93
2022/06/19 14:21:01;;;;;;;2.70;0.60;;;;;;;;;;4994932;28;20026;-92
2022/06/19 14:23:37;;;;;;;2.67;0.50;;;;;;;;;;4994496;28;20489;-92
2022/06/19 14:26:05;;;;;;;1.52;0.60;;;;;;;;;;4994418;28;20029;-92
2022/06/19 14:28:43;;;;;;;1.40;0.80;;;;;;;;;;4994325;28;20014;-90
2022/06/19 14:31:08;;;;;;;;;;;;;;;;;;4994738;28;20053;-91
2022/06/19 14:33:40;;;;;;;0.45;0.35;;;;;;;;;;4994117;28;20352;-90
2022/06/19 14:36:17;;;;;;;0.55;0.55;;;;;;;;;;4994212;28;20046;-91
2022/06/19 14:38:43;;;;;;;2.70;0.80;;;;;;;;;;4994531;28;20474;-90
2022/06/19 14:41:28;;;;;;;0.60;0.60;;;;;;;;;;4993994;28;20019;-90
2022/06/19 14:43:57;;;;;;;0.52;0.40;;;;;;;;;;4976886;28;20052;-90
2022/06/19 14:46:31;;;;;;;0.73;0.57;;;;;;;;;;4993812;28;20021;-89
2022/06/19 14:49:20;;;;;;;0.68;0.68;;;;;;;;;;4993877;28;20470;-90
2022/06/19 14:51:51;;;;;;;0.50;0.50;;;;;;;;;;4994503;28;20073;-90
2022/06/19 14:54:36;;;;;;;0.77;0.38;;;;;;;;;;4993781;28;20113;-89
2022/06/19 14:57:22;;;;;;;0.40;0.40;;;;;;;;;;4995218;28;20026;-89
2022/06/19 14:59:47;;;;;;;1.15;0.80;;;;;;;;;;4993608;28;20029;-89
2022/06/19 15:02:21;;;;;;;2.67;0.57;;;;;;;;;;4994591;28;20030;-89
2022/06/19 15:04:59;;;;;;;0.43;0.40;;;;;;;;;;4996454;28;20053;-88
2022/06/19 15:07:25;;;;;;;0.65;0.60;;;;;;;;;;4996543;28;20044;-88